createdAt,value
2023-05-06T00:03:40.805Z,7.60
2023-05-06T00:08:48.047Z,7.60
2023-05-06T00:13:54.901Z,7.60
2023-05-06T00:19:01.879Z,7.70
2023-05-06T00:24:09.516Z,6.80
2023-05-06T00:29:16.403Z,7.60
2023-05-06T00:34:23.268Z,7.30
2023-05-06T00:39:30.631Z,8.00
2023-05-06T00:44:37.567Z,7.30
2023-05-06T00:49:44.773Z,8.00
2023-05-06T00:54:52.597Z,7.60
2023-05-06T00:59:59.627Z,7.40
2023-05-06T01:05:08.282Z,7.10
2023-05-06T01:10:22.614Z,6.40
2023-05-06T01:15:34.553Z,8.10
2023-05-06T01:20:43.743Z,6.70
2023-05-06T01:25:50.777Z,7.00
2023-05-06T01:31:03.792Z,7.00
2023-05-06T01:36:20.040Z,6.90
2023-05-06T01:41:28.411Z,6.30
2023-05-06T01:46:35.672Z,7.30
2023-05-06T01:51:47.911Z,7.50
2023-05-06T01:56:55.315Z,7.30
2023-05-06T02:02:02.307Z,7.00
2023-05-06T02:07:09.782Z,7.40
2023-05-06T02:12:17.073Z,7.60
2023-05-06T02:17:24.289Z,7.10
2023-05-06T02:22:31.794Z,6.50
2023-05-06T02:27:38.753Z,7.60
2023-05-06T02:32:45.898Z,6.90
2023-05-06T02:37:52.805Z,6.40
2023-05-06T02:42:59.891Z,7.10
2023-05-06T02:48:07.642Z,9.00
2023-05-06T02:53:16.956Z,8.10
2023-05-06T02:58:23.935Z,6.80
2023-05-06T03:03:30.905Z,6.30
2023-05-06T03:08:38.077Z,6.70
2023-05-06T03:13:46.501Z,6.60
2023-05-06T03:18:54.296Z,6.80
2023-05-06T03:24:01.617Z,6.10
2023-05-06T03:29:09.743Z,6.70
2023-05-06T03:34:16.867Z,6.00
2023-05-06T03:39:24.993Z,6.50
2023-05-06T03:44:32.703Z,7.80
2023-05-06T03:49:40.195Z,7.30
2023-05-06T03:54:47.996Z,6.40
2023-05-06T03:59:54.892Z,6.60
2023-05-06T04:05:02.219Z,7.50
2023-05-06T04:10:11.402Z,6.80
2023-05-06T04:15:20.266Z,8.40
2023-05-06T04:20:27.466Z,8.40
2023-05-06T04:25:36.008Z,7.90
2023-05-06T04:30:43.446Z,8.40
2023-05-06T04:35:54.866Z,7.70
2023-05-06T04:41:03.989Z,8.70
2023-05-06T04:46:11.637Z,7.50
2023-05-06T04:51:19.374Z,10.00
2023-05-06T04:56:26.489Z,11.20
2023-05-06T05:01:34.286Z,9.60
2023-05-06T05:06:41.633Z,9.30
2023-05-06T05:11:48.836Z,9.40
2023-05-06T05:16:56.084Z,9.60
2023-05-06T05:22:03.780Z,8.20
2023-05-06T05:27:15.338Z,8.50
2023-05-06T05:32:25.169Z,7.50
2023-05-06T05:37:32.719Z,7.50
2023-05-06T05:42:40.817Z,7.20
2023-05-06T05:47:54.154Z,9.30
2023-05-06T05:53:02.375Z,8.20
2023-05-06T05:58:12.508Z,7.40
2023-05-06T06:03:21.702Z,7.40
2023-05-06T06:08:29.938Z,9.90
2023-05-06T06:13:38.040Z,7.50
2023-05-06T06:18:48.116Z,8.50
2023-05-06T06:23:55.077Z,8.30
2023-05-06T06:29:02.180Z,8.20
2023-05-06T06:34:10.044Z,8.70
2023-05-06T06:39:17.121Z,9.60
2023-05-06T06:44:24.130Z,8.80
2023-05-06T06:49:32.557Z,10.00
2023-05-06T06:54:41.415Z,8.50
2023-05-06T06:59:50.433Z,9.40
2023-05-06T07:04:57.703Z,10.10
2023-05-06T07:10:04.898Z,12.10
2023-05-06T07:15:13.046Z,10.40
2023-05-06T07:20:20.450Z,10.50
2023-05-06T07:25:31.472Z,10.30
2023-05-06T07:30:40.583Z,10.80
2023-05-06T07:35:47.713Z,11.20
2023-05-06T07:40:54.990Z,9.70
2023-05-06T07:46:05.224Z,10.70
2023-05-06T07:51:12.400Z,11.40
2023-05-06T07:56:20.159Z,11.60
2023-05-06T08:01:27.168Z,10.20
2023-05-06T08:06:33.970Z,10.20
2023-05-06T08:11:40.945Z,11.20
2023-05-06T08:16:48.017Z,17.60
2023-05-06T08:21:55.426Z,14.60
2023-05-06T08:27:02.416Z,24.20
2023-05-06T08:32:09.622Z,12.60
2023-05-06T08:37:16.638Z,12.70
2023-05-06T08:42:26.431Z,12.70
2023-05-06T08:47:33.511Z,9.60
2023-05-06T08:52:40.887Z,11.60
2023-05-06T08:57:49.211Z,11.40
2023-05-06T09:02:56.504Z,14.20
2023-05-06T09:08:04.328Z,13.50
2023-05-06T09:13:14.054Z,15.00
2023-05-06T09:18:21.308Z,13.90
2023-05-06T09:23:28.618Z,12.80
2023-05-06T09:28:36.732Z,12.90
2023-05-06T09:33:43.796Z,15.00
2023-05-06T09:38:50.994Z,14.50
2023-05-06T09:43:59.334Z,14.50
2023-05-06T09:49:06.993Z,13.40
2023-05-06T09:54:15.091Z,11.90
2023-05-06T09:59:24.587Z,14.10
2023-05-06T10:04:34.938Z,12.40
2023-05-06T10:09:42.678Z,12.40
2023-05-06T10:14:50.615Z,12.40
2023-05-06T10:20:01.452Z,11.20
2023-05-06T10:25:19.413Z,10.60
2023-05-06T10:30:27.975Z,11.00
2023-05-06T10:35:49.304Z,11.90
2023-05-06T10:46:10.851Z,12.50
2023-05-06T10:51:28.966Z,11.20
2023-05-06T10:56:37.632Z,11.20
2023-05-06T11:01:46.458Z,11.70
2023-05-06T11:06:54.369Z,11.40
2023-05-06T11:12:05.869Z,10.90
2023-05-06T11:22:50.738Z,11.90
2023-05-06T11:27:58.488Z,11.30
2023-05-06T11:33:09.132Z,11.00
2023-05-06T11:38:16.251Z,11.20
2023-05-06T11:43:23.444Z,10.80
2023-05-06T11:48:30.713Z,11.30
2023-05-06T11:53:38.470Z,10.00
2023-05-06T11:58:47.536Z,10.30
2023-05-06T12:03:57.632Z,11.60
2023-05-06T12:09:06.515Z,10.60
2023-05-06T12:14:14.046Z,9.30
2023-05-06T12:19:22.218Z,10.70
2023-05-06T12:24:32.230Z,11.20
2023-05-06T12:29:39.223Z,10.50
2023-05-06T12:34:46.277Z,9.90
2023-05-06T12:39:53.280Z,15.40
2023-05-06T12:45:13.920Z,11.10
2023-05-06T12:50:33.750Z,11.30
2023-05-06T12:55:42.424Z,10.60
2023-05-06T13:00:49.448Z,11.80
2023-05-06T13:05:56.388Z,11.60
2023-05-06T13:11:04.318Z,12.30
2023-05-06T13:16:12.090Z,11.80
2023-05-06T13:21:18.916Z,10.70
2023-05-06T13:26:25.995Z,12.40
2023-05-06T13:31:34.934Z,13.90
2023-05-06T13:36:43.352Z,13.20
2023-05-06T13:41:50.673Z,11.60
2023-05-06T13:46:57.872Z,15.60
2023-05-06T13:52:07.212Z,15.90
2023-05-06T13:57:15.053Z,17.80
2023-05-06T14:02:22.368Z,16.20
2023-05-06T14:07:29.525Z,17.90
2023-05-06T14:12:36.743Z,17.40
2023-05-06T14:17:44.094Z,17.20
2023-05-06T14:22:51.118Z,17.00
2023-05-06T14:27:58.408Z,18.70
2023-05-06T14:33:05.560Z,20.50
2023-05-06T14:38:13.291Z,17.20
2023-05-06T14:43:21.490Z,16.30
2023-05-06T14:48:28.577Z,16.80
2023-05-06T14:53:35.798Z,16.20
2023-05-06T14:58:42.999Z,15.10
2023-05-06T15:03:51.256Z,16.20
2023-05-06T15:08:58.331Z,14.50
2023-05-06T15:14:05.322Z,13.60
2023-05-06T15:19:12.964Z,14.10
2023-05-06T15:24:19.924Z,14.60
2023-05-06T15:29:26.950Z,15.70
2023-05-06T15:34:33.935Z,16.10
2023-05-06T15:39:40.927Z,15.90
2023-05-06T15:44:51.524Z,16.00
2023-05-06T15:49:59.686Z,15.20
2023-05-06T15:55:08.308Z,15.30
2023-05-06T16:00:19.423Z,15.30
2023-05-06T16:05:26.545Z,16.40
2023-05-06T16:10:35.572Z,15.60
2023-05-06T16:15:43.482Z,15.20
2023-05-06T16:20:51.082Z,16.80
2023-05-06T16:25:58.144Z,12.70
2023-05-06T16:31:06.204Z,12.90
2023-05-06T16:36:13.432Z,13.50
2023-05-06T16:41:20.922Z,14.80
2023-05-06T16:46:28.952Z,14.00
2023-05-06T16:51:36.203Z,11.60
2023-05-06T16:56:51.304Z,12.00
2023-05-06T17:01:59.795Z,11.10
2023-05-06T17:07:07.569Z,12.30
2023-05-06T17:12:14.585Z,11.50
2023-05-06T17:17:25.319Z,11.40
2023-05-06T17:22:32.628Z,9.40
2023-05-06T17:27:39.813Z,9.40
2023-05-06T17:32:46.816Z,9.90
2023-05-06T17:37:55.009Z,9.50
2023-05-06T17:43:02.102Z,9.80
2023-05-06T17:48:09.439Z,7.60
2023-05-06T17:53:16.540Z,9.20
2023-05-06T17:58:24.007Z,10.80
2023-05-06T18:03:31.305Z,19.80
2023-05-06T18:08:38.328Z,13.40
2023-05-06T18:13:45.424Z,14.80
2023-05-06T18:18:52.501Z,13.90
2023-05-06T18:24:10.265Z,15.00
2023-05-06T18:29:23.044Z,13.60
2023-05-06T18:34:30.385Z,13.80
2023-05-06T18:39:42.826Z,14.40
2023-05-06T18:44:50.464Z,14.50
2023-05-06T18:50:00.594Z,14.70
2023-05-06T18:55:08.955Z,12.40
2023-05-06T19:00:16.839Z,19.90
2023-05-06T19:05:43.964Z,11.40
2023-05-06T19:10:51.060Z,10.70
2023-05-06T19:16:01.444Z,13.40
2023-05-06T19:21:12.502Z,12.90
2023-05-06T19:26:19.844Z,13.30
2023-05-06T19:31:27.015Z,10.20
2023-05-06T19:36:37.099Z,10.50
2023-05-06T19:41:44.229Z,10.20
2023-05-06T19:46:56.182Z,10.80
2023-05-06T19:52:03.448Z,10.30
2023-05-06T19:57:10.792Z,11.70
2023-05-06T20:02:17.919Z,11.60
2023-05-06T20:07:24.985Z,12.70
2023-05-06T20:12:32.057Z,14.00
2023-05-06T20:17:38.989Z,14.00
2023-05-06T20:22:46.076Z,11.50
2023-05-06T20:27:53.104Z,13.60
2023-05-06T20:33:00.310Z,12.20
2023-05-06T20:38:11.154Z,12.60
2023-05-06T20:43:18.279Z,13.40
2023-05-06T20:48:27.101Z,12.10
2023-05-06T20:53:34.863Z,12.20
2023-05-06T20:58:42.237Z,13.70
2023-05-06T21:03:49.105Z,12.20
2023-05-06T21:08:56.455Z,11.60
2023-05-06T21:14:03.656Z,12.80
2023-05-06T21:19:11.113Z,14.10
2023-05-06T21:24:18.213Z,13.90
2023-05-06T21:29:25.473Z,15.60
2023-05-06T21:34:32.533Z,15.10
2023-05-06T21:39:39.606Z,14.00
2023-05-06T21:44:46.674Z,14.70
2023-05-06T21:49:54.155Z,15.10
2023-05-06T21:55:01.617Z,17.40
2023-05-06T22:00:12.431Z,13.60
2023-05-06T22:05:20.371Z,13.10
2023-05-06T22:10:27.615Z,13.30
2023-05-06T22:15:34.617Z,11.80
2023-05-06T22:20:41.622Z,13.10
2023-05-06T22:25:49.500Z,10.90
2023-05-06T22:30:56.635Z,10.60
2023-05-06T22:36:03.777Z,10.50
2023-05-06T22:41:12.963Z,10.60
2023-05-06T22:46:20.313Z,10.20
2023-05-06T22:51:27.750Z,10.40
2023-05-06T22:56:34.818Z,13.00
2023-05-06T23:01:41.777Z,10.50
2023-05-06T23:06:48.947Z,9.60
2023-05-06T23:11:56.138Z,9.10
2023-05-06T23:17:03.044Z,8.80
2023-05-06T23:22:10.044Z,8.30
2023-05-06T23:27:16.906Z,8.20
2023-05-06T23:32:23.776Z,8.10
2023-05-06T23:37:30.736Z,7.80
2023-05-06T23:42:37.778Z,7.40
2023-05-06T23:47:44.830Z,7.50
2023-05-06T23:52:51.901Z,7.50
2023-05-06T23:57:58.783Z,7.30
